sensor_id;sensor_type;location;lat;lon;timestamp;pressure;altitude;pressure_sealevel;temperature;humidity
26807;BME280;14380;49.910;6.792;2023-05-10T00:02:17;98143.34;;;13.75;100.00
26807;BME280;14380;49.910;6.792;2023-05-10T00:04:44;98142.88;;;13.81;100.00
26807;BME280;14380;49.910;6.792;2023-05-10T00:07:10;98148.03;;;13.82;100.00
26807;BME280;14380;49.910;6.792;2023-05-10T00:09:38;98147.94;;;13.84;100.00
26807;BME280;14380;49.910;6.792;2023-05-10T00:12:05;98147.09;;;13.95;100.00
26807;BME280;14380;49.910;6.792;2023-05-10T00:14:33;98148.53;;;14.10;100.00
26807;BME280;14380;49.910;6.792;2023-05-10T00:17:00;98135.59;;;13.94;100.00
26807;BME280;14380;49.910;6.792;2023-05-10T00:19:26;98135.50;;;13.85;100.00
26807;BME280;14380;49.910;6.792;2023-05-10T00:21:53;98136.13;;;13.88;100.00
26807;BME280;14380;49.910;6.792;2023-05-10T00:24:20;98137.28;;;13.95;100.00
26807;BME280;14380;49.910;6.792;2023-05-10T00:26:48;98137.53;;;13.92;100.00
26807;BME280;14380;49.910;6.792;2023-05-10T00:29:15;98138.50;;;14.03;100.00
26807;BME280;14380;49.910;6.792;2023-05-10T00:31:42;98132.50;;;13.89;100.00
26807;BME280;14380;49.910;6.792;2023-05-10T00:34:09;98132.59;;;13.76;100.00
26807;BME280;14380;49.910;6.792;2023-05-10T00:36:36;98131.41;;;13.80;100.00
26807;BME280;14380;49.910;6.792;2023-05-10T00:39:03;98138.16;;;13.85;100.00
26807;BME280;14380;49.910;6.792;2023-05-10T00:41:30;98133.34;;;13.67;100.00
26807;BME280;14380;49.910;6.792;2023-05-10T00:43:59;98129.94;;;13.88;100.00
26807;BME280;14380;49.910;6.792;2023-05-10T00:46:27;98128.16;;;13.77;100.00
26807;BME280;14380;49.910;6.792;2023-05-10T00:48:54;98127.56;;;13.62;100.00
26807;BME280;14380;49.910;6.792;2023-05-10T00:51:21;98124.16;;;13.71;100.00
26807;BME280;14380;49.910;6.792;2023-05-10T00:53:48;98126.09;;;13.69;100.00
26807;BME280;14380;49.910;6.792;2023-05-10T00:56:16;98133.06;;;13.47;100.00
26807;BME280;14380;49.910;6.792;2023-05-10T00:58:43;98139.19;;;13.36;100.00
26807;BME280;14380;49.910;6.792;2023-05-10T01:01:11;98130.66;;;13.44;100.00
26807;BME280;14380;49.910;6.792;2023-05-10T01:03:39;98131.47;;;13.33;100.00
26807;BME280;14380;49.910;6.792;2023-05-10T01:06:07;98132.53;;;13.31;100.00
26807;BME280;14380;49.910;6.792;2023-05-10T01:08:35;98135.34;;;13.41;100.00
26807;BME280;14380;49.910;6.792;2023-05-10T01:11:01;98134.34;;;13.30;100.00
26807;BME280;14380;49.910;6.792;2023-05-10T01:13:31;98131.38;;;13.46;100.00
26807;BME280;14380;49.910;6.792;2023-05-10T01:15:59;98137.69;;;13.21;100.00
26807;BME280;14380;49.910;6.792;2023-05-10T01:18:29;98139.22;;;13.48;100.00
26807;BME280;14380;49.910;6.792;2023-05-10T01:21:06;98145.91;;;13.29;100.00
26807;BME280;14380;49.910;6.792;2023-05-10T01:23:45;98143.91;;;13.44;100.00
26807;BME280;14380;49.910;6.792;2023-05-10T01:26:31;98140.53;;;13.42;100.00
26807;BME280;14380;49.910;6.792;2023-05-10T01:29:14;98139.41;;;13.33;100.00
26807;BME280;14380;49.910;6.792;2023-05-10T01:32:02;98142.06;;;13.33;100.00
26807;BME280;14380;49.910;6.792;2023-05-10T01:34:40;98140.88;;;13.37;100.00
26807;BME280;14380;49.910;6.792;2023-05-10T01:37:13;98140.97;;;13.36;100.00
26807;BME280;14380;49.910;6.792;2023-05-10T01:39:45;98144.06;;;13.07;100.00
26807;BME280;14380;49.910;6.792;2023-05-10T01:42:17;98145.28;;;13.14;100.00
26807;BME280;14380;49.910;6.792;2023-05-10T01:44:50;98130.81;;;13.07;100.00
26807;BME280;14380;49.910;6.792;2023-05-10T01:47:26;98145.06;;;13.17;100.00
26807;BME280;14380;49.910;6.792;2023-05-10T01:49:55;98134.78;;;13.13;100.00
26807;BME280;14380;49.910;6.792;2023-05-10T01:52:26;98143.06;;;12.97;100.00
26807;BME280;14380;49.910;6.792;2023-05-10T01:55:01;98144.56;;;13.12;100.00
26807;BME280;14380;49.910;6.792;2023-05-10T01:57:33;98142.38;;;13.06;100.00
26807;BME280;14380;49.910;6.792;2023-05-10T02:00:02;98145.97;;;13.05;100.00
26807;BME280;14380;49.910;6.792;2023-05-10T02:02:33;98144.69;;;12.86;100.00
26807;BME280;14380;49.910;6.792;2023-05-10T02:05:04;98150.91;;;12.98;100.00
26807;BME280;14380;49.910;6.792;2023-05-10T02:07:33;98152.47;;;13.01;100.00
26807;BME280;14380;49.910;6.792;2023-05-10T02:10:01;98156.53;;;12.93;100.00
26807;BME280;14380;49.910;6.792;2023-05-10T02:12:29;98158.63;;;13.01;100.00
26807;BME280;14380;49.910;6.792;2023-05-10T02:14:59;98156.81;;;13.02;100.00
26807;BME280;14380;49.910;6.792;2023-05-10T02:17:28;98165.25;;;13.07;100.00
26807;BME280;14380;49.910;6.792;2023-05-10T02:19:58;98160.56;;;13.11;100.00
26807;BME280;14380;49.910;6.792;2023-05-10T02:22:26;98156.44;;;13.06;100.00
26807;BME280;14380;49.910;6.792;2023-05-10T02:24:54;98163.88;;;12.90;100.00
26807;BME280;14380;49.910;6.792;2023-05-10T02:27:23;98164.47;;;12.93;100.00
26807;BME280;14380;49.910;6.792;2023-05-10T02:29:51;98164.25;;;12.97;100.00
26807;BME280;14380;49.910;6.792;2023-05-10T02:32:18;98162.59;;;13.07;100.00
26807;BME280;14380;49.910;6.792;2023-05-10T02:34:46;98160.00;;;13.18;100.00
26807;BME280;14380;49.910;6.792;2023-05-10T02:37:19;98161.06;;;13.16;100.00
26807;BME280;14380;49.910;6.792;2023-05-10T02:39:46;98169.53;;;13.32;100.00
26807;BME280;14380;49.910;6.792;2023-05-10T02:42:16;98168.69;;;13.20;100.00
26807;BME280;14380;49.910;6.792;2023-05-10T02:44:45;98162.97;;;13.14;100.00
26807;BME280;14380;49.910;6.792;2023-05-10T02:47:14;98163.94;;;13.13;100.00
26807;BME280;14380;49.910;6.792;2023-05-10T02:49:40;98163.75;;;13.27;100.00
26807;BME280;14380;49.910;6.792;2023-05-10T02:52:08;98166.50;;;13.14;100.00
26807;BME280;14380;49.910;6.792;2023-05-10T02:54:40;98169.84;;;13.05;100.00
26807;BME280;14380;49.910;6.792;2023-05-10T02:57:11;98162.88;;;13.15;100.00
26807;BME280;14380;49.910;6.792;2023-05-10T02:59:40;98162.16;;;13.13;100.00
26807;BME280;14380;49.910;6.792;2023-05-10T03:02:08;98166.44;;;13.03;100.00
26807;BME280;14380;49.910;6.792;2023-05-10T03:04:35;98165.84;;;13.11;100.00
26807;BME280;14380;49.910;6.792;2023-05-10T03:07:02;98174.28;;;13.04;100.00
26807;BME280;14380;49.910;6.792;2023-05-10T03:09:29;98169.56;;;12.97;100.00
26807;BME280;14380;49.910;6.792;2023-05-10T03:12:02;98175.63;;;13.10;100.00
26807;BME280;14380;49.910;6.792;2023-05-10T03:14:42;98175.44;;;12.89;100.00
26807;BME280;14380;49.910;6.792;2023-05-10T03:17:15;98179.38;;;12.83;100.00
26807;BME280;14380;49.910;6.792;2023-05-10T03:19:49;98185.97;;;12.77;100.00
26807;BME280;14380;49.910;6.792;2023-05-10T03:22:24;98185.06;;;12.66;100.00
26807;BME280;14380;49.910;6.792;2023-05-10T03:24:53;98181.91;;;12.60;100.00
26807;BME280;14380;49.910;6.792;2023-05-10T03:27:25;98183.31;;;12.53;100.00
26807;BME280;14380;49.910;6.792;2023-05-10T03:29:53;98180.34;;;12.58;100.00
26807;BME280;14380;49.910;6.792;2023-05-10T03:32:21;98190.59;;;12.62;100.00
26807;BME280;14380;49.910;6.792;2023-05-10T03:34:49;98200.16;;;12.52;100.00
26807;BME280;14380;49.910;6.792;2023-05-10T03:37:15;98194.19;;;12.61;100.00
26807;BME280;14380;49.910;6.792;2023-05-10T03:39:42;98196.47;;;12.42;100.00
26807;BME280;14380;49.910;6.792;2023-05-10T03:42:09;98189.13;;;12.58;100.00
26807;BME280;14380;49.910;6.792;2023-05-10T03:44:39;98189.72;;;12.38;100.00
26807;BME280;14380;49.910;6.792;2023-05-10T03:47:06;98195.25;;;12.22;100.00
26807;BME280;14380;49.910;6.792;2023-05-10T03:49:33;98194.19;;;12.37;100.00
26807;BME280;14380;49.910;6.792;2023-05-10T03:52:00;98200.59;;;12.46;100.00
26807;BME280;14380;49.910;6.792;2023-05-10T03:54:26;98199.03;;;12.43;100.00
26807;BME280;14380;49.910;6.792;2023-05-10T03:56:53;98202.94;;;12.51;100.00
26807;BME280;14380;49.910;6.792;2023-05-10T03:59:20;98197.00;;;12.47;100.00
26807;BME280;14380;49.910;6.792;2023-05-10T04:01:48;98194.13;;;12.50;100.00
26807;BME280;14380;49.910;6.792;2023-05-10T04:04:15;98191.16;;;12.55;100.00
26807;BME280;14380;49.910;6.792;2023-05-10T04:06:45;98187.06;;;12.51;100.00
26807;BME280;14380;49.910;6.792;2023-05-10T04:09:12;98197.81;;;12.60;100.00
26807;BME280;14380;49.910;6.792;2023-05-10T04:11:39;98192.44;;;12.73;100.00
26807;BME280;14380;49.910;6.792;2023-05-10T04:14:07;98193.13;;;12.64;100.00
26807;BME280;14380;49.910;6.792;2023-05-10T04:16:34;98190.81;;;12.59;100.00
26807;BME280;14380;49.910;6.792;2023-05-10T04:19:02;98200.09;;;12.89;100.00
26807;BME280;14380;49.910;6.792;2023-05-10T04:21:29;98193.69;;;12.81;100.00
26807;BME280;14380;49.910;6.792;2023-05-10T04:23:56;98193.19;;;12.75;100.00
26807;BME280;14380;49.910;6.792;2023-05-10T04:26:23;98197.31;;;12.79;100.00
26807;BME280;14380;49.910;6.792;2023-05-10T04:28:52;98199.78;;;12.70;100.00
26807;BME280;14380;49.910;6.792;2023-05-10T04:31:18;98197.44;;;12.78;100.00
26807;BME280;14380;49.910;6.792;2023-05-10T04:33:45;98204.69;;;12.87;100.00
26807;BME280;14380;49.910;6.792;2023-05-10T04:36:14;98202.22;;;12.97;100.00
26807;BME280;14380;49.910;6.792;2023-05-10T04:38:41;98196.56;;;13.02;100.00
26807;BME280;14380;49.910;6.792;2023-05-10T04:41:09;98189.47;;;13.14;100.00
26807;BME280;14380;49.910;6.792;2023-05-10T04:43:37;98197.63;;;13.23;100.00
26807;BME280;14380;49.910;6.792;2023-05-10T04:46:04;98203.63;;;13.26;100.00
26807;BME280;14380;49.910;6.792;2023-05-10T04:48:32;98206.91;;;13.29;100.00
26807;BME280;14380;49.910;6.792;2023-05-10T04:50:59;98210.66;;;13.38;100.00
26807;BME280;14380;49.910;6.792;2023-05-10T04:53:27;98214.03;;;13.04;100.00
26807;BME280;14380;49.910;6.792;2023-05-10T04:55:54;98216.78;;;13.03;100.00
26807;BME280;14380;49.910;6.792;2023-05-10T04:58:21;98214.44;;;13.11;100.00
26807;BME280;14380;49.910;6.792;2023-05-10T05:00:48;98218.19;;;13.20;100.00
26807;BME280;14380;49.910;6.792;2023-05-10T05:03:15;98217.59;;;13.16;100.00
26807;BME280;14380;49.910;6.792;2023-05-10T05:05:41;98223.50;;;13.20;100.00
26807;BME280;14380;49.910;6.792;2023-05-10T05:08:08;98222.75;;;13.18;100.00
26807;BME280;14380;49.910;6.792;2023-05-10T05:10:36;98228.47;;;13.24;100.00
26807;BME280;14380;49.910;6.792;2023-05-10T05:13:03;98233.78;;;13.24;100.00
26807;BME280;14380;49.910;6.792;2023-05-10T05:15:30;98236.91;;;13.05;100.00
26807;BME280;14380;49.910;6.792;2023-05-10T05:17:57;98240.13;;;13.22;100.00
26807;BME280;14380;49.910;6.792;2023-05-10T05:20:24;98239.91;;;13.25;100.00
26807;BME280;14380;49.910;6.792;2023-05-10T05:22:50;98239.41;;;13.20;100.00
26807;BME280;14380;49.910;6.792;2023-05-10T05:25:17;98241.38;;;13.29;100.00
26807;BME280;14380;49.910;6.792;2023-05-10T05:27:45;98245.88;;;13.16;100.00
26807;BME280;14380;49.910;6.792;2023-05-10T05:30:12;98247.66;;;13.39;100.00
26807;BME280;14380;49.910;6.792;2023-05-10T05:32:39;98241.88;;;13.34;100.00
26807;BME280;14380;49.910;6.792;2023-05-10T05:35:07;98251.03;;;13.66;100.00
26807;BME280;14380;49.910;6.792;2023-05-10T05:37:34;98243.53;;;13.60;100.00
26807;BME280;14380;49.910;6.792;2023-05-10T05:40:02;98251.56;;;13.47;100.00
26807;BME280;14380;49.910;6.792;2023-05-10T05:42:30;98255.06;;;13.47;100.00
26807;BME280;14380;49.910;6.792;2023-05-10T05:44:59;98255.72;;;13.62;100.00
26807;BME280;14380;49.910;6.792;2023-05-10T05:47:26;98250.06;;;13.67;100.00
26807;BME280;14380;49.910;6.792;2023-05-10T05:49:53;98249.91;;;13.57;100.00
26807;BME280;14380;49.910;6.792;2023-05-10T05:52:20;98258.63;;;13.71;100.00
26807;BME280;14380;49.910;6.792;2023-05-10T05:54:47;98259.47;;;13.71;100.00
26807;BME280;14380;49.910;6.792;2023-05-10T05:57:14;98269.09;;;13.72;100.00
26807;BME280;14380;49.910;6.792;2023-05-10T05:59:41;98268.38;;;13.70;100.00
26807;BME280;14380;49.910;6.792;2023-05-10T06:02:10;98273.00;;;13.79;100.00
26807;BME280;14380;49.910;6.792;2023-05-10T06:04:37;98275.06;;;13.87;100.00
26807;BME280;14380;49.910;6.792;2023-05-10T06:07:04;98278.03;;;13.71;100.00
26807;BME280;14380;49.910;6.792;2023-05-10T06:09:31;98276.84;;;13.64;100.00
26807;BME280;14380;49.910;6.792;2023-05-10T06:11:58;98286.63;;;13.75;100.00
26807;BME280;14380;49.910;6.792;2023-05-10T06:14:25;98289.50;;;13.72;100.00
26807;BME280;14380;49.910;6.792;2023-05-10T06:16:52;98287.69;;;13.61;100.00
26807;BME280;14380;49.910;6.792;2023-05-10T06:19:21;98291.97;;;13.50;100.00
26807;BME280;14380;49.910;6.792;2023-05-10T06:21:48;98301.53;;;13.64;100.00
26807;BME280;14380;49.910;6.792;2023-05-10T06:24:15;98301.00;;;13.48;100.00
26807;BME280;14380;49.910;6.792;2023-05-10T06:26:41;98295.16;;;13.67;100.00
26807;BME280;14380;49.910;6.792;2023-05-10T06:29:08;98302.94;;;13.46;100.00
26807;BME280;14380;49.910;6.792;2023-05-10T06:31:35;98316.94;;;13.59;100.00
26807;BME280;14380;49.910;6.792;2023-05-10T06:34:02;98318.00;;;13.92;100.00
26807;BME280;14380;49.910;6.792;2023-05-10T06:36:31;98315.91;;;13.73;100.00
26807;BME280;14380;49.910;6.792;2023-05-10T06:38:57;98316.94;;;13.95;100.00
26807;BME280;14380;49.910;6.792;2023-05-10T06:41:24;98318.72;;;13.94;100.00
26807;BME280;14380;49.910;6.792;2023-05-10T06:43:51;98318.28;;;14.01;100.00
26807;BME280;14380;49.910;6.792;2023-05-10T06:46:18;98319.59;;;13.95;100.00
26807;BME280;14380;49.910;6.792;2023-05-10T06:48:45;98328.03;;;13.89;100.00
26807;BME280;14380;49.910;6.792;2023-05-10T06:51:11;98320.81;;;14.02;100.00
26807;BME280;14380;49.910;6.792;2023-05-10T06:53:39;98320.88;;;13.78;100.00
26807;BME280;14380;49.910;6.792;2023-05-10T06:56:06;98325.56;;;14.33;100.00
26807;BME280;14380;49.910;6.792;2023-05-10T06:58:33;98326.56;;;14.77;100.00
26807;BME280;14380;49.910;6.792;2023-05-10T07:01:03;98328.22;;;15.01;100.00
26807;BME280;14380;49.910;6.792;2023-05-10T07:03:31;98331.13;;;14.98;100.00
26807;BME280;14380;49.910;6.792;2023-05-10T07:06:01;98340.06;;;14.63;100.00
26807;BME280;14380;49.910;6.792;2023-05-10T07:08:30;98343.69;;;14.62;100.00
26807;BME280;14380;49.910;6.792;2023-05-10T07:11:02;98332.56;;;14.79;100.00
26807;BME280;14380;49.910;6.792;2023-05-10T07:13:30;98340.41;;;14.58;100.00
26807;BME280;14380;49.910;6.792;2023-05-10T07:15:57;98339.22;;;15.40;100.00
26807;BME280;14380;49.910;6.792;2023-05-10T07:18:25;98343.34;;;15.33;100.00
26807;BME280;14380;49.910;6.792;2023-05-10T07:20:52;98339.16;;;15.63;100.00
26807;BME280;14380;49.910;6.792;2023-05-10T07:23:19;98342.94;;;15.49;100.00
26807;BME280;14380;49.910;6.792;2023-05-10T07:25:46;98341.97;;;15.18;100.00
26807;BME280;14380;49.910;6.792;2023-05-10T07:28:15;98341.31;;;15.37;100.00
26807;BME280;14380;49.910;6.792;2023-05-10T07:30:42;98348.72;;;15.22;100.00
26807;BME280;14380;49.910;6.792;2023-05-10T07:33:10;98347.69;;;14.90;100.00
26807;BME280;14380;49.910;6.792;2023-05-10T07:35:38;98351.16;;;15.02;100.00
26807;BME280;14380;49.910;6.792;2023-05-10T07:38:05;98352.78;;;16.02;100.00
26807;BME280;14380;49.910;6.792;2023-05-10T07:40:32;98345.88;;;16.00;100.00
26807;BME280;14380;49.910;6.792;2023-05-10T07:42:59;98352.50;;;15.84;100.00
26807;BME280;14380;49.910;6.792;2023-05-10T07:45:28;98343.94;;;16.23;100.00
26807;BME280;14380;49.910;6.792;2023-05-10T07:47:55;98357.16;;;16.56;100.00
26807;BME280;14380;49.910;6.792;2023-05-10T07:50:22;98352.31;;;15.97;100.00
26807;BME280;14380;49.910;6.792;2023-05-10T07:52:49;98361.31;;;14.85;100.00
26807;BME280;14380;49.910;6.792;2023-05-10T07:55:18;98368.31;;;15.09;100.00
26807;BME280;14380;49.910;6.792;2023-05-10T07:57:46;98372.44;;;14.91;100.00
26807;BME280;14380;49.910;6.792;2023-05-10T08:00:17;98380.06;;;14.72;100.00
26807;BME280;14380;49.910;6.792;2023-05-10T08:02:47;98381.00;;;15.06;100.00
26807;BME280;14380;49.910;6.792;2023-05-10T08:05:14;98376.88;;;14.67;100.00
26807;BME280;14380;49.910;6.792;2023-05-10T08:07:40;98379.81;;;14.87;100.00
26807;BME280;14380;49.910;6.792;2023-05-10T08:10:09;98377.03;;;15.11;100.00
26807;BME280;14380;49.910;6.792;2023-05-10T08:12:37;98371.16;;;15.29;100.00
26807;BME280;14380;49.910;6.792;2023-05-10T08:15:05;98375.44;;;15.64;100.00
26807;BME280;14380;49.910;6.792;2023-05-10T08:17:33;98369.66;;;16.13;100.00
26807;BME280;14380;49.910;6.792;2023-05-10T08:20:01;98362.25;;;16.16;100.00
26807;BME280;14380;49.910;6.792;2023-05-10T08:22:28;98372.97;;;16.05;100.00
26807;BME280;14380;49.910;6.792;2023-05-10T08:24:55;98376.44;;;15.84;100.00
26807;BME280;14380;49.910;6.792;2023-05-10T08:27:22;98375.16;;;16.00;100.00
26807;BME280;14380;49.910;6.792;2023-05-10T08:29:49;98381.56;;;15.87;100.00
26807;BME280;14380;49.910;6.792;2023-05-10T08:32:19;98380.31;;;15.48;100.00
26807;BME280;14380;49.910;6.792;2023-05-10T08:34:46;98383.31;;;15.98;100.00
26807;BME280;14380;49.910;6.792;2023-05-10T08:37:14;98383.50;;;15.74;100.00
26807;BME280;14380;49.910;6.792;2023-05-10T08:39:41;98392.06;;;15.89;100.00
26807;BME280;14380;49.910;6.792;2023-05-10T08:42:08;98392.72;;;15.70;100.00
26807;BME280;14380;49.910;6.792;2023-05-10T08:44:36;98381.72;;;16.17;100.00
26807;BME280;14380;49.910;6.792;2023-05-10T08:47:05;98392.97;;;15.99;100.00
26807;BME280;14380;49.910;6.792;2023-05-10T08:49:33;98383.25;;;16.10;100.00
26807;BME280;14380;49.910;6.792;2023-05-10T08:52:02;98386.47;;;16.34;100.00
26807;BME280;14380;49.910;6.792;2023-05-10T08:54:33;98381.28;;;16.95;100.00
26807;BME280;14380;49.910;6.792;2023-05-10T08:57:01;98379.97;;;17.11;100.00
26807;BME280;14380;49.910;6.792;2023-05-10T08:59:28;98378.84;;;17.13;100.00
26807;BME280;14380;49.910;6.792;2023-05-10T09:01:57;98382.03;;;17.48;100.00
26807;BME280;14380;49.910;6.792;2023-05-10T09:04:24;98370.09;;;18.11;100.00
26807;BME280;14380;49.910;6.792;2023-05-10T09:06:51;98372.94;;;18.00;100.00
26807;BME280;14380;49.910;6.792;2023-05-10T09:09:19;98372.91;;;17.80;99.47
26807;BME280;14380;49.910;6.792;2023-05-10T09:11:47;98381.19;;;17.77;99.67
26807;BME280;14380;49.910;6.792;2023-05-10T09:14:15;98381.88;;;17.49;100.00
26807;BME280;14380;49.910;6.792;2023-05-10T09:16:42;98385.28;;;17.61;100.00
26807;BME280;14380;49.910;6.792;2023-05-10T09:19:10;98381.31;;;17.56;100.00
26807;BME280;14380;49.910;6.792;2023-05-10T09:21:37;98372.47;;;17.55;93.41
26807;BME280;14380;49.910;6.792;2023-05-10T09:24:05;98380.56;;;18.52;97.36
26807;BME280;14380;49.910;6.792;2023-05-10T09:26:32;98376.84;;;18.05;97.90
26807;BME280;14380;49.910;6.792;2023-05-10T09:29:02;98389.75;;;17.51;97.71
26807;BME280;14380;49.910;6.792;2023-05-10T09:31:44;98394.91;;;17.33;98.70
26807;BME280;14380;49.910;6.792;2023-05-10T09:34:15;98403.84;;;16.50;100.00
26807;BME280;14380;49.910;6.792;2023-05-10T09:36:54;98416.81;;;16.22;100.00
26807;BME280;14380;49.910;6.792;2023-05-10T09:39:30;98422.56;;;15.73;100.00
26807;BME280;14380;49.910;6.792;2023-05-10T09:41:57;98427.00;;;15.40;100.00
26807;BME280;14380;49.910;6.792;2023-05-10T09:44:27;98422.59;;;14.95;100.00
26807;BME280;14380;49.910;6.792;2023-05-10T09:46:54;98433.97;;;14.27;100.00
26807;BME280;14380;49.910;6.792;2023-05-10T09:49:21;98429.09;;;14.21;100.00
26807;BME280;14380;49.910;6.792;2023-05-10T09:51:59;98435.28;;;14.33;100.00
26807;BME280;14380;49.910;6.792;2023-05-10T09:54:27;98442.34;;;14.46;100.00
26807;BME280;14380;49.910;6.792;2023-05-10T09:56:54;98442.69;;;14.52;100.00
26807;BME280;14380;49.910;6.792;2023-05-10T09:59:21;98437.72;;;14.36;100.00
26807;BME280;14380;49.910;6.792;2023-05-10T10:01:51;98441.31;;;14.71;100.00
26807;BME280;14380;49.910;6.792;2023-05-10T10:04:18;98445.66;;;14.83;100.00
26807;BME280;14380;49.910;6.792;2023-05-10T10:06:46;98449.16;;;14.72;100.00
26807;BME280;14380;49.910;6.792;2023-05-10T10:09:29;98449.41;;;14.81;100.00
26807;BME280;14380;49.910;6.792;2023-05-10T10:11:56;98443.00;;;14.95;100.00
26807;BME280;14380;49.910;6.792;2023-05-10T10:14:24;98448.28;;;15.40;100.00
26807;BME280;14380;49.910;6.792;2023-05-10T10:16:52;98448.91;;;15.44;100.00
26807;BME280;14380;49.910;6.792;2023-05-10T10:19:20;98447.56;;;15.38;100.00
26807;BME280;14380;49.910;6.792;2023-05-10T10:21:47;98447.47;;;15.40;100.00
26807;BME280;14380;49.910;6.792;2023-05-10T10:24:14;98449.03;;;15.31;100.00
26807;BME280;14380;49.910;6.792;2023-05-10T10:26:42;98442.63;;;15.77;100.00
26807;BME280;14380;49.910;6.792;2023-05-10T10:29:18;98434.50;;;15.58;100.00
26807;BME280;14380;49.910;6.792;2023-05-10T10:31:51;98437.28;;;16.00;100.00
26807;BME280;14380;49.910;6.792;2023-05-10T10:34:26;98430.47;;;16.08;100.00
26807;BME280;14380;49.910;6.792;2023-05-10T10:36:54;98425.94;;;16.19;100.00
26807;BME280;14380;49.910;6.792;2023-05-10T10:39:23;98434.59;;;16.33;100.00
26807;BME280;14380;49.910;6.792;2023-05-10T10:41:52;98423.97;;;16.64;100.00
26807;BME280;14380;49.910;6.792;2023-05-10T10:44:26;98430.59;;;17.01;100.00
26807;BME280;14380;49.910;6.792;2023-05-10T10:47:07;98439.41;;;15.74;100.00
26807;BME280;14380;49.910;6.792;2023-05-10T10:49:51;98434.91;;;15.74;100.00
26807;BME280;14380;49.910;6.792;2023-05-10T10:52:25;98436.66;;;15.64;100.00
26807;BME280;14380;49.910;6.792;2023-05-10T10:54:59;98429.06;;;15.92;100.00
26807;BME280;14380;49.910;6.792;2023-05-10T10:57:27;98431.97;;;16.64;100.00
26807;BME280;14380;49.910;6.792;2023-05-10T11:00:20;98425.63;;;16.86;100.00
26807;BME280;14380;49.910;6.792;2023-05-10T11:02:49;98431.69;;;16.67;100.00
26807;BME280;14380;49.910;6.792;2023-05-10T11:05:42;98433.03;;;16.83;100.00
26807;BME280;14380;49.910;6.792;2023-05-10T11:08:15;98433.22;;;16.91;100.00
26807;BME280;14380;49.910;6.792;2023-05-10T11:10:54;98440.03;;;16.53;100.00
26807;BME280;14380;49.910;6.792;2023-05-10T11:13:30;98433.66;;;16.44;100.00
26807;BME280;14380;49.910;6.792;2023-05-10T11:15:58;98433.13;;;16.71;100.00
26807;BME280;14380;49.910;6.792;2023-05-10T11:18:25;98434.09;;;17.32;100.00
26807;BME280;14380;49.910;6.792;2023-05-10T11:20:57;98436.56;;;17.14;100.00
26807;BME280;14380;49.910;6.792;2023-05-10T11:23:29;98433.91;;;17.14;100.00
26807;BME280;14380;49.910;6.792;2023-05-10T11:25:57;98424.81;;;18.07;100.00
26807;BME280;14380;49.910;6.792;2023-05-10T11:28:25;98427.72;;;17.94;100.00
26807;BME280;14380;49.910;6.792;2023-05-10T11:30:53;98427.53;;;17.46;96.31
26807;BME280;14380;49.910;6.792;2023-05-10T11:33:21;98422.56;;;18.22;100.00
26807;BME280;14380;49.910;6.792;2023-05-10T11:35:48;98435.16;;;17.71;94.36
26807;BME280;14380;49.910;6.792;2023-05-10T11:38:16;98433.94;;;18.04;96.72
26807;BME280;14380;49.910;6.792;2023-05-10T11:40:43;98434.03;;;17.63;95.29
26807;BME280;14380;49.910;6.792;2023-05-10T11:43:10;98443.13;;;17.41;94.91
26807;BME280;14380;49.910;6.792;2023-05-10T11:45:37;98444.13;;;17.69;95.15
26807;BME280;14380;49.910;6.792;2023-05-10T11:48:04;98446.97;;;17.78;95.67
26807;BME280;14380;49.910;6.792;2023-05-10T11:50:31;98444.81;;;17.42;91.78
26807;BME280;14380;49.910;6.792;2023-05-10T11:52:59;98445.88;;;18.49;91.98
26807;BME280;14380;49.910;6.792;2023-05-10T11:55:27;98442.09;;;18.32;88.29
26807;BME280;14380;49.910;6.792;2023-05-10T11:58:00;98447.31;;;18.04;89.47
26807;BME280;14380;49.910;6.792;2023-05-10T12:00:27;98459.75;;;17.74;90.52
26807;BME280;14380;49.910;6.792;2023-05-10T12:02:54;98457.66;;;17.78;90.72
26807;BME280;14380;49.910;6.792;2023-05-10T12:05:22;98456.22;;;17.54;90.29
26807;BME280;14380;49.910;6.792;2023-05-10T12:07:49;98456.34;;;17.52;92.80
26807;BME280;14380;49.910;6.792;2023-05-10T12:10:15;98456.69;;;17.28;94.07
26807;BME280;14380;49.910;6.792;2023-05-10T12:12:46;98450.28;;;17.41;92.59
26807;BME280;14380;49.910;6.792;2023-05-10T12:15:20;98464.41;;;16.69;92.41
26807;BME280;14380;49.910;6.792;2023-05-10T12:17:48;98463.75;;;16.98;88.93
26807;BME280;14380;49.910;6.792;2023-05-10T12:20:16;98464.03;;;16.84;92.92
26807;BME280;14380;49.910;6.792;2023-05-10T12:22:45;98463.97;;;17.26;91.49
26807;BME280;14380;49.910;6.792;2023-05-10T12:25:13;98466.28;;;17.41;91.41
26807;BME280;14380;49.910;6.792;2023-05-10T12:27:41;98471.06;;;17.37;90.89
26807;BME280;14380;49.910;6.792;2023-05-10T12:30:19;98475.53;;;17.87;95.01
26807;BME280;14380;49.910;6.792;2023-05-10T12:32:45;98472.69;;;17.69;87.95
26807;BME280;14380;49.910;6.792;2023-05-10T12:35:12;98466.78;;;17.85;91.75
26807;BME280;14380;49.910;6.792;2023-05-10T12:37:42;98463.06;;;17.06;86.12
26807;BME280;14380;49.910;6.792;2023-05-10T12:40:10;98467.72;;;17.45;87.04
26807;BME280;14380;49.910;6.792;2023-05-10T12:42:38;98468.97;;;17.50;86.09
26807;BME280;14380;49.910;6.792;2023-05-10T12:45:06;98477.06;;;16.98;85.28
26807;BME280;14380;49.910;6.792;2023-05-10T12:47:35;98471.63;;;17.50;90.86
26807;BME280;14380;49.910;6.792;2023-05-10T12:50:03;98480.13;;;17.65;86.68
26807;BME280;14380;49.910;6.792;2023-05-10T12:52:31;98478.44;;;17.23;85.95
26807;BME280;14380;49.910;6.792;2023-05-10T12:54:58;98488.31;;;17.02;84.83
26807;BME280;14380;49.910;6.792;2023-05-10T12:57:26;98483.03;;;17.12;85.39
26807;BME280;14380;49.910;6.792;2023-05-10T12:59:53;98487.34;;;17.34;83.19